Time;durP1;ratioP1;P1;durP2;ratioP2;P2;SDS_P1;SDS_P2;PMS_P1;PMS_P2;Temp;Humidity;BMP_temperature;BMP_pressure;BME280_temperature;BME280_humidity;BME280_pressure;Samples;Min_cycle;Max_cycle;Signal;HPM_P1;HPM_P2
2022/09/14 00:02:21;;;;;;;;;;;;;;;9.90;100.00;98505.44;5095943;28;19955;-75
2022/09/14 00:04:50;;;;;;;;;;;;;;;10.18;100.00;98512.38;5094850;28;20283;-75
2022/09/14 00:07:17;;;;;;;;;;;;;;;10.52;100.00;98504.41;5094707;28;19962;-76
2022/09/14 00:09:44;;;;;;;;;;;;;;;10.46;100.00;98500.56;5094593;28;19924;-75
2022/09/14 00:12:11;;;;;;;;;;;;;;;10.46;100.00;98494.97;5077692;28;19931;-76
2022/09/14 00:14:39;;;;;;;;;;;;;;;10.52;100.00;98504.41;5077906;28;19924;-76
2022/09/14 00:17:06;;;;;;;;;;;;;;;10.40;100.00;98507.88;5111405;28;19924;-75
2022/09/14 00:19:33;;;;;;;;;;;;;;;10.14;100.00;98504.09;5094250;28;20298;-75
2022/09/14 00:22:00;;;;;;;;;;;;;;;10.02;100.00;98503.97;5094364;28;19924;-75
2022/09/14 00:24:29;;;;;;;;;;;;;;;10.37;100.00;98492.78;5095465;28;19928;-75
2022/09/14 00:26:56;;;;;;;;;;;;;;;10.65;100.00;98508.03;5094052;28;20440;-76
2022/09/14 00:29:24;;;;;;;;;;;;;;;10.46;100.00;98495.75;5077844;28;19948;-76
2022/09/14 00:31:51;;;;;;;;;;;;;;;10.43;100.00;98490.25;5093636;28;19925;-76
2022/09/14 00:34:18;;;;;;;;;;;;;;;10.29;100.00;98485.81;5095290;28;19924;-75
2022/09/14 00:36:47;;;;;;;;;;;;;;;10.13;100.00;98474.59;5094143;28;20011;-76
2022/09/14 00:39:16;;;;;;;;;;;;;;;10.52;100.00;98484.84;5077248;28;20367;-76
2022/09/14 00:41:44;;;;;;;;;;;;;;;10.34;100.00;98481.69;5110931;28;19928;-75
2022/09/14 00:44:11;;;;;;;;;;;;;;;10.43;100.00;98484.66;5094078;28;19924;-76
2022/09/14 00:46:49;;;;;;;;;;;;;;;10.60;100.00;98480.66;5093865;28;20405;-75
2022/09/14 00:49:19;;;;;;;;;;;;;;;10.56;100.00;98479.94;5095172;28;19924;-76
2022/09/14 00:52:07;;;;;;;;;;;;;;;10.84;100.00;98477.19;5095235;28;19930;-76
2022/09/14 00:54:41;;;;;;;;;;;;;;;10.59;100.00;98477.06;5093618;28;20368;-76
2022/09/14 00:57:08;;;;;;;;;;;;;;;10.04;100.00;98468.03;5060540;28;20326;-76
2022/09/14 00:59:37;;;;;;;;;;;;;;;10.17;100.00;98478.13;5093714;28;19924;-76
2022/09/14 01:02:04;;;;;;;;;;;;;;;10.37;100.00;98472.44;5093816;28;19930;-75
2022/09/14 01:04:31;;;;;;;;;;;;;;;10.50;100.00;98467.72;5093606;28;19924;-76
2022/09/14 01:07:17;;;;;;;;;;;;;;;10.39;100.00;98464.44;5094727;28;19977;-76
2022/09/14 01:09:56;;;;;;;;;;;;;;;10.36;100.00;98456.94;5095075;28;19924;-76
2022/09/14 01:12:23;;;;;;;;;;;;;;;9.94;100.00;98457.88;5076794;28;19924;-75
2022/09/14 01:14:58;;;;;;;;;;;;;;;10.04;100.00;98456.88;5094820;28;19924;-76
2022/09/14 01:17:43;;;;;;;;;;;;;;;10.33;100.00;98447.41;5076614;28;19924;-76
2022/09/14 01:20:29;;;;;;;;;;;;;;;10.80;100.00;98454.16;5093617;28;19930;-76
2022/09/14 01:23:06;;;;;;;;;;;;;;;11.03;100.00;98444.75;5110311;28;19969;-76
2022/09/14 01:25:39;;;;;;;;;;;;;;;10.94;100.00;98439.03;5093319;28;19924;-76
2022/09/14 01:28:11;;;;;;;;;;;;;;;10.91;100.00;98437.09;5093185;28;19932;-75
2022/09/14 01:30:40;;;;;;;;;;;;;;;11.08;100.00;98440.63;5094529;28;20020;-76
2022/09/14 01:33:07;;;;;;;;;;;;;;;11.30;100.00;98434.00;5076587;28;19924;-76
2022/09/14 01:35:42;;;;;;;;;;;;;;;11.35;100.00;98422.28;5110328;28;19924;-75
2022/09/14 01:38:28;;;;;;;;;;;;;;;11.27;100.00;98426.50;5093454;28;19978;-76
2022/09/14 01:40:56;;;;;;;;;;;;;;;11.22;100.00;98418.69;5092896;28;20339;-76
2022/09/14 01:43:26;;;;;;;;;;;;;;;11.29;100.00;98418.47;5092718;28;19969;-76
2022/09/14 01:45:56;;;;;;;;;;;;;;;11.32;100.00;98411.97;5093038;28;20272;-75
2022/09/14 01:48:26;;;;;;;;;;;;;;;11.12;100.00;98414.16;5094343;28;19967;-75
2022/09/14 01:50:55;;;;;;;;;;;;;;;11.03;100.00;98402.81;5094261;28;19967;-76
2022/09/14 01:53:37;;;;;;;;;;;;;;;10.91;100.00;98395.19;5094104;28;19924;-75
2022/09/14 01:56:14;;;;;;;;;;;;;;;10.78;100.00;98402.75;5093073;28;19958;-76
2022/09/14 01:59:00;;;;;;;;;;;;;;;11.01;100.00;98396.13;5109938;28;19931;-75
2022/09/14 02:01:30;;;;;;;;;;;;;;;11.00;100.00;98400.91;5076021;28;20258;-76
2022/09/14 02:04:01;;;;;;;;;;;;;;;11.03;100.00;98399.28;5094455;28;19932;-75
2022/09/14 02:06:38;;;;;;;;;;;;;;;10.42;100.00;98394.50;5076299;28;19955;-76
2022/09/14 02:09:06;;;;;;;;;;;;;;;10.37;100.00;98392.25;5093939;28;19930;-76
2022/09/14 02:11:33;;;;;;;;;;;;;;;10.17;100.00;98405.53;5092740;28;19931;-76
2022/09/14 02:14:01;;;;;;;;;;;;;;;10.40;100.00;98405.34;5093098;28;19973;-76
2022/09/14 02:16:28;;;;;;;;;;;;;;;10.81;100.00;98415.84;5075997;28;19931;-75
2022/09/14 02:18:55;;;;;;;;;;;;;;;11.01;100.00;98418.47;5076161;28;20389;-76
2022/09/14 02:21:25;;;;;;;;;;;;;;;11.04;100.00;98415.59;5075958;28;19924;-76
2022/09/14 02:23:52;;;;;;;;;;;;;;;10.91;100.00;98407.16;5075796;28;19924;-75
2022/09/14 02:26:20;;;;;;;;;;;;;;;11.12;100.00;98408.56;5059150;28;19931;-76
2022/09/14 02:28:47;;;;;;;;;;;;;;;11.27;100.00;98404.13;5076027;28;20007;-76
2022/09/14 02:31:24;;;;;;;;;;;;;;;11.37;100.00;98403.06;5075766;28;19924;-75
2022/09/14 02:33:58;;;;;;;;;;;;;;;11.59;100.00;98408.78;5093965;28;19931;-75
2022/09/14 02:36:25;;;;;;;;;;;;;;;11.54;100.00;98406.53;5092955;28;20359;-75
2022/09/14 02:38:57;;;;;;;;;;;;;;;11.48;100.00;98408.31;5092332;28;19924;-75
2022/09/14 02:41:44;;;;;;;;;;;;;;;11.26;100.00;98405.38;5092618;28;20003;-75
2022/09/14 02:44:29;;;;;;;;;;;;;;;11.61;100.00;98418.31;5093705;28;19978;-76
2022/09/14 02:47:00;;;;;;;;;;;;;;;11.79;100.00;98410.19;5075701;28;20014;-76
2022/09/14 02:49:27;;;;;;;;;;;;;;;11.84;100.00;98409.63;5075511;28;19987;-76
2022/09/14 02:52:29;;;;;;;;;;;;;;;11.90;100.00;98412.63;5075444;28;20371;-76
2022/09/14 02:55:02;;;;;;;;;;;;;;;11.87;100.00;98408.72;5054898;28;19924;-75
2022/09/14 02:57:29;;;;;;;;;;;;;;;11.44;100.00;98408.41;5074800;28;19932;-75
2022/09/14 02:59:55;;;;;;;;;;;;;;;11.56;100.00;98409.66;5057957;28;19932;-76
2022/09/14 03:02:22;;;;;;;;;;;;;;;11.61;100.00;98406.31;5074644;28;19974;-76
2022/09/14 03:04:49;;;;;;;;;;;;;;;11.36;100.00;98395.88;5074574;28;19928;-76
2022/09/14 03:07:16;;;;;;;;;;;;;;;11.58;100.00;98394.00;5057751;28;19925;-76
2022/09/14 03:09:43;;;;;;;;;;;;;;;11.76;100.00;98380.28;5074471;28;19925;-75
2022/09/14 03:12:10;;;;;;;;;;;;;;;11.63;100.00;98390.69;5041063;28;19970;-76
2022/09/14 03:14:37;;;;;;;;;;;;;;;11.21;100.00;98379.97;5074284;28;19928;-76
2022/09/14 03:17:04;;;;;;;;;;;;;;;11.40;100.00;98379.00;5057901;28;20024;-76
2022/09/14 03:19:30;;;;;;;;;;;;;;;11.12;100.00;98379.84;5057846;28;19928;-76
2022/09/14 03:21:57;;;;;;;;;;;;;;;11.39;100.00;98377.44;5057355;28;19925;-76
2022/09/14 03:24:24;;;;;;;;;;;;;;;11.50;100.00;98370.28;5074182;28;20015;-75
2022/09/14 03:26:51;;;;;;;;;;;;;;;11.67;100.00;98365.38;5040821;28;20395;-76
2022/09/14 03:29:18;;;;;;;;;;;;;;;11.32;100.00;98372.81;5080504;28;20294;-76
2022/09/14 03:31:45;;;;;;;;;;;;;;;11.23;100.00;98369.09;5096653;28;19924;-76
2022/09/14 03:34:12;;;;;;;;;;;;;;;11.15;100.00;98367.75;5096611;28;19924;-75
2022/09/14 03:36:39;;;;;;;;;;;;;;;11.30;100.00;98378.06;5078347;28;20015;-76
2022/09/14 03:39:06;;;;;;;;;;;;;;;11.42;100.00;98380.09;5112464;28;20020;-76
2022/09/14 03:41:33;;;;;;;;;;;;;;;11.21;100.00;98377.94;5095161;28;19924;-75
2022/09/14 03:44:00;;;;;;;;;;;;;;;11.13;100.00;98379.41;5111942;28;19924;-76
2022/09/14 03:46:27;;;;;;;;;;;;;;;11.86;100.00;98378.41;5078512;28;19930;-76
2022/09/14 03:48:54;;;;;;;;;;;;;;;11.89;100.00;98372.66;5095121;28;20019;-76
2022/09/14 03:51:22;;;;;;;;;;;;;;;11.91;100.00;98366.63;5094890;28;19924;-75
2022/09/14 03:53:49;;;;;;;;;;;;;;;12.18;100.00;98362.09;5096160;28;19928;-76
2022/09/14 03:56:18;;;;;;;;;;;;;;;12.45;100.00;98362.38;5078569;28;20022;-75
2022/09/14 03:58:45;;;;;;;;;;;;;;;12.56;100.00;98359.19;5095723;28;20390;-76
2022/09/14 04:01:14;;;;;;;;;;;;;;;12.34;100.00;98361.94;5077554;28;19969;-75
2022/09/14 04:03:42;;;;;;;;;;;;;;;12.45;100.00;98358.78;5094434;28;19924;-76
2022/09/14 04:06:09;;;;;;;;;;;;;;;12.22;100.00;98354.34;5076357;28;20363;-76
2022/09/14 04:08:37;;;;;;;;;;;;;;;12.44;100.00;98349.63;5092449;28;20421;-75
2022/09/14 04:11:09;;;;;;;;;;;;;;;12.59;100.00;98356.28;5110141;28;19924;-76
2022/09/14 04:13:37;;;;;;;;;;;;;;;12.51;100.00;98357.75;5093173;28;19936;-76
2022/09/14 04:16:05;;;;;;;;;;;;;;;12.27;100.00;98353.00;5094843;28;19925;-76
2022/09/14 04:18:57;;;;;;;;;;;;;;;12.46;100.00;98352.72;5094442;28;19924;-76
2022/09/14 04:21:24;;;;;;;;;;;;;;;12.47;100.00;98347.91;5094511;28;19967;-76
2022/09/14 04:23:53;;;;;;;;;;;;;;;12.19;100.00;98346.84;5093224;28;19928;-76
2022/09/14 04:26:38;;;;;;;;;;;;;;;12.22;100.00;98356.41;5077231;28;19924;-76
2022/09/14 04:29:05;;;;;;;;;;;;;;;12.23;100.00;98353.13;5094315;28;19948;-75
2022/09/14 04:31:32;;;;;;;;;;;;;;;12.53;100.00;98360.09;5095351;28;19967;-81
2022/09/14 04:34:00;;;;;;;;;;;;;;;12.61;100.00;98344.63;5077512;28;19955;-77
2022/09/14 04:36:29;;;;;;;;;;;;;;;12.56;100.00;98348.78;5095395;28;20426;-78
2022/09/14 04:38:57;;;;;;;;;;;;;;;12.56;100.00;98336.78;5093815;28;19924;-77
2022/09/14 04:41:25;;;;;;;;;;;;;;;12.47;100.00;98334.69;5093919;28;20310;-77
2022/09/14 04:43:53;;;;;;;;;;;;;;;12.37;100.00;98326.66;5095140;28;19924;-77
2022/09/14 04:46:21;;;;;;;;;;;;;;;12.25;100.00;98328.25;5095152;28;19928;-78
2022/09/14 04:48:49;;;;;;;;;;;;;;;12.26;100.00;98329.84;5094838;28;20440;-78
2022/09/14 04:51:18;;;;;;;;;;;;;;;11.93;100.00;98334.16;5093781;28;19967;-77
2022/09/14 04:53:46;;;;;;;;;;;;;;;11.66;100.00;98330.25;5093730;28;19924;-78
2022/09/14 04:56:14;;;;;;;;;;;;;;;11.85;100.00;98326.44;5093517;28;20322;-78
2022/09/14 04:58:43;;;;;;;;;;;;;;;11.81;100.00;98320.97;5093429;28;19924;-77
2022/09/14 05:01:13;;;;;;;;;;;;;;;11.77;100.00;98331.47;5094771;28;19931;-77
2022/09/14 05:03:40;;;;;;;;;;;;;;;10.83;100.00;98341.50;5094613;28;19924;-78
2022/09/14 05:06:12;;;;;;;;;;;;;;;10.89;100.00;98336.16;5094719;28;19939;-77
2022/09/14 05:08:40;;;;;;;;;;;;;;;10.53;100.00;98338.38;5093528;28;19977;-78
2022/09/14 05:11:07;;;;;;;;;;;;;;;10.50;100.00;98334.44;5094434;28;20309;-78
2022/09/14 05:13:35;;;;;;;;;;;;;;;10.76;100.00;98335.31;5093480;28;19930;-77
2022/09/14 05:16:06;;;;;;;;;;;;;;;10.91;100.00;98339.28;5059842;28;19924;-77
2022/09/14 05:18:33;;;;;;;;;;;;;;;10.91;100.00;98328.09;5092951;28;19924;-77
2022/09/14 05:21:04;;;;;;;;;;;;;;;10.83;100.00;98332.31;5094505;28;19928;-77
2022/09/14 05:23:34;;;;;;;;;;;;;;;10.74;100.00;98321.81;5094375;28;19928;-78
2022/09/14 05:26:02;;;;;;;;;;;;;;;10.76;100.00;98324.94;5092871;28;19924;-77
2022/09/14 05:28:29;;;;;;;;;;;;;;;10.97;100.00;98331.94;5092715;28;19974;-76
2022/09/14 05:30:56;;;;;;;;;;;;;;;10.77;100.00;98331.31;5076242;28;19976;-75
2022/09/14 05:33:23;;;;;;;;;;;;;;;9.86;100.00;98320.53;5094495;28;19924;-75
2022/09/14 05:35:50;;;;;;;;;;;;;;;10.11;100.00;98333.91;5093072;28;19931;-76
2022/09/14 05:38:17;;;;;;;;;;;;;;;10.29;100.00;98337.03;5076319;28;19930;-75
2022/09/14 05:40:44;;;;;;;;;;;;;;;10.60;100.00;98332.59;5094180;28;20397;-75
2022/09/14 05:43:11;;;;;;;;;;;;;;;10.62;100.00;98335.72;5092910;28;20478;-75
2022/09/14 05:45:38;;;;;;;;;;;;;;;10.40;100.00;98329.16;5076352;28;20018;-75
2022/09/14 05:48:05;;;;;;;;;;;;;;;10.67;100.00;98330.41;5094152;28;19924;-75
2022/09/14 05:50:33;;;;;;;;;;;;;;;10.83;100.00;98329.53;5094065;28;19924;-74
2022/09/14 05:53:00;;;;;;;;;;;;;;;11.09;100.00;98325.56;5086043;28;19974;-76
2022/09/14 05:55:27;;;;;;;;;;;;;;;10.62;100.00;98325.34;5088727;28;19931;-76
2022/09/14 05:57:54;;;;;;;;;;;;;;;10.99;100.00;98333.03;5089192;28;19928;-76
2022/09/14 06:00:21;;;;;;;;;;;;;;;10.31;100.00;98326.22;5093880;28;20467;-76
2022/09/14 06:02:49;;;;;;;;;;;;;;;10.00;100.00;98331.34;5099942;28;19973;-76
2022/09/14 06:05:42;;;;;;;;;;;;;;;10.57;100.00;98325.88;5101468;28;20713;-76
2022/09/14 06:08:09;;;;;;;;;;;;;;;10.49;100.00;98320.94;5088689;28;20286;-76
2022/09/14 06:10:36;;;;;;;;;;;;;;;10.98;100.00;98325.09;5092561;28;20418;-76
2022/09/14 06:13:03;;;;;;;;;;;;;;;11.33;100.00;98321.25;5100597;28;20426;-76
2022/09/14 06:15:31;;;;;;;;;;;;;;;11.33;100.00;98312.84;5095234;28;19924;-75
2022/09/14 06:17:58;;;;;;;;;;;;;;;11.63;100.00;98320.72;5104964;28;19935;-75
2022/09/14 06:20:26;;;;;;;;;;;;;;;11.79;100.00;98322.63;5095537;28;19924;-75
2022/09/14 06:22:54;;;;;;;;;;;;;;;11.53;100.00;98318.22;5100030;28;19924;-75
2022/09/14 06:25:21;;;;;;;;;;;;;;;11.88;100.00;98320.72;5102050;28;19934;-74
2022/09/14 06:27:48;;;;;;;;;;;;;;;11.96;100.00;98310.06;5088593;28;20286;-75
2022/09/14 06:30:15;;;;;;;;;;;;;;;12.07;100.00;98305.66;5089061;28;20383;-75
2022/09/14 06:32:42;;;;;;;;;;;;;;;12.18;100.00;98314.50;5101558;28;19928;-75
2022/09/14 06:35:09;;;;;;;;;;;;;;;12.07;100.00;98322.47;5091929;28;19931;-75
2022/09/14 06:37:37;;;;;;;;;;;;;;;11.75;100.00;98322.75;5110071;28;19930;-74
2022/09/14 06:40:05;;;;;;;;;;;;;;;11.32;100.00;98322.47;5095419;28;20337;-74
2022/09/14 06:42:31;;;;;;;;;;;;;;;11.92;100.00;98338.16;5105458;28;20323;-75
2022/09/14 06:44:58;;;;;;;;;;;;;;;12.35;100.00;98332.72;5102956;28;19970;-75
2022/09/14 06:47:30;;;;;;;;;;;;;;;12.70;100.00;98328.66;5098943;28;20011;-75
2022/09/14 06:49:57;;;;;;;;;;;;;;;12.89;100.00;98329.56;5108495;28;19927;-74
2022/09/14 06:52:24;;;;;;;;;;;;;;;13.10;100.00;98325.25;5098077;28;19970;-75
2022/09/14 06:54:52;;;;;;;;;;;;;;;13.26;100.00;98327.81;5103663;28;19927;-75
2022/09/14 06:57:18;;;;;;;;;;;;;;;13.30;100.00;98325.69;5088001;28;19931;-75
2022/09/14 06:59:45;;;;;;;;;;;;;;;13.54;100.00;98329.53;5092226;28;19989;-74
2022/09/14 07:02:12;;;;;;;;;;;;;;;13.56;100.00;98327.03;5109117;28;21010;-74
2022/09/14 07:04:39;;;;;;;;;;;;;;;13.56;100.00;98330.63;5100660;28;19973;-74
2022/09/14 07:07:06;;;;;;;;;;;;;;;13.81;100.00;98312.81;5101678;28;19945;-75
2022/09/14 07:09:35;;;;;;;;;;;;;;;14.07;100.00;98317.69;5108427;28;19924;-74
2022/09/14 07:12:02;;;;;;;;;;;;;;;14.39;100.00;98325.59;5095974;27;19931;-74
2022/09/14 07:14:29;;;;;;;;;;;;;;;14.42;100.00;98319.03;5106341;28;19967;-75
2022/09/14 07:16:58;;;;;;;;;;;;;;;14.48;100.00;98331.22;5102268;28;19969;-73
2022/09/14 07:19:24;;;;;;;;;;;;;;;14.65;100.00;98320.47;5098300;28;19924;-76
2022/09/14 07:21:53;;;;;;;;;;;;;;;15.08;100.00;98319.34;5091750;28;20299;-78
2022/09/14 07:24:20;;;;;;;;;;;;;;;15.72;100.00;98329.97;5097769;28;20354;-78
2022/09/14 07:26:48;;;;;;;;;;;;;;;16.15;100.00;98323.81;5098698;28;19932;-79
2022/09/14 07:29:17;;;;;;;;;;;;;;;17.52;100.00;98322.22;5104872;28;19924;-78
2022/09/14 07:31:46;;;;;;;;;;;;;;;16.60;100.00;98308.66;5074955;28;19924;-77
2022/09/14 07:34:14;;;;;;;;;;;;;;;16.62;100.00;98305.34;5106869;28;19924;-76
2022/09/14 07:36:41;;;;;;;;;;;;;;;15.71;100.00;98311.53;5099489;28;19930;-77
2022/09/14 07:39:15;;;;;;;;;;;;;;;15.57;100.00;98323.47;5100902;28;19924;-76
2022/09/14 07:41:42;;;;;;;;;;;;;;;15.70;100.00;98309.19;5107935;28;19959;-78
2022/09/14 07:44:12;;;;;;;;;;;;;;;15.12;100.00;98286.97;5096118;28;20022;-80
2022/09/14 07:46:42;;;;;;;;;;;;;;;15.56;100.00;98301.41;5103475;28;19963;-77
2022/09/14 07:49:11;;;;;;;;;;;;;;;15.70;100.00;98304.34;5105336;28;19923;-78
2022/09/14 07:51:39;;;;;;;;;;;;;;;15.80;100.00;98305.84;5096093;28;19924;-78
2022/09/14 07:54:07;;;;;;;;;;;;;;;16.47;100.00;98287.63;5108942;28;20363;-76
2022/09/14 07:56:34;;;;;;;;;;;;;;;15.97;100.00;98284.50;5082461;28;19970;-74
2022/09/14 07:59:02;;;;;;;;;;;;;;;16.84;100.00;98300.19;5091044;28;20634;-77
2022/09/14 08:01:44;;;;;;;;;;;;;;;18.05;100.00;98293.81;5101305;28;19925;-76
2022/09/14 08:04:11;;;;;;;;;;;;;;;17.83;100.00;98273.69;5100759;28;20069;-76
2022/09/14 08:06:39;;;;;;;;;;;;;;;17.56;100.00;98272.00;5092080;28;19924;-76
2022/09/14 08:09:07;;;;;;;;;;;;;;;16.23;100.00;98267.88;5091929;28;20018;-77
2022/09/14 08:11:35;;;;;;;;;;;;;;;16.11;100.00;98271.72;5088851;28;19924;-77
2022/09/14 08:14:03;;;;;;;;;;;;;;;16.20;100.00;98275.28;5094108;28;20375;-77
2022/09/14 08:16:31;;;;;;;;;;;;;;;16.04;100.00;98272.06;5104095;28;19924;-77
2022/09/14 08:19:02;;;;;;;;;;;;;;;16.61;100.00;98272.78;5100342;28;19924;-77
2022/09/14 08:21:30;;;;;;;;;;;;;;;16.43;100.00;98275.72;5096663;28;20003;-77
2022/09/14 08:24:02;;;;;;;;;;;;;;;16.66;100.00;98278.53;5107065;28;20073;-77
2022/09/14 08:26:30;;;;;;;;;;;;;;;17.53;100.00;98283.47;5098162;28;19924;-77
2022/09/14 08:28:59;;;;;;;;;;;;;;;18.10;100.00;98267.66;5099364;28;19975;-78
2022/09/14 08:31:27;;;;;;;;;;;;;;;18.00;100.00;98266.22;5106060;28;20428;-79
2022/09/14 08:33:57;;;;;;;;;;;;;;;17.87;100.00;98268.63;5109027;28;20159;-79
2022/09/14 08:36:25;;;;;;;;;;;;;;;17.86;100.00;98262.19;5097201;28;19924;-78
2022/09/14 08:38:52;;;;;;;;;;;;;;;17.63;100.00;98253.88;5101245;28;19924;-79
2022/09/14 08:41:38;;;;;;;;;;;;;;;17.95;100.00;98255.63;5105280;28;20022;-79
2022/09/14 08:44:13;;;;;;;;;;;;;;;18.46;100.00;98267.16;5093534;28;19927;-78
2022/09/14 08:46:46;;;;;;;;;;;;;;;18.79;100.00;98264.72;5102533;28;19986;-78
2022/09/14 08:49:29;;;;;;;;;;;;;;;18.41;100.00;98267.84;5104578;28;19930;-77
2022/09/14 08:51:57;;;;;;;;;;;;;;;17.66;100.00;98267.00;5093283;28;19927;-79
2022/09/14 08:54:24;;;;;;;;;;;;;;;17.24;100.00;98269.34;5105295;28;19977;-78
2022/09/14 08:57:04;;;;;;;;;;;;;;;17.00;100.00;98275.09;5100176;28;20019;-78
2022/09/14 08:59:49;;;;;;;;;;;;;;;17.19;100.00;98273.63;5094174;28;19928;-79
2022/09/14 09:02:35;;;;;;;;;;;;;;;17.08;100.00;98281.91;5095651;28;19937;-78
2022/09/14 09:05:02;;;;;;;;;;;;;;;17.16;100.00;98271.03;5099238;28;20015;-79
2022/09/14 09:07:37;;;;;;;;;;;;;;;16.49;100.00;98268.19;5105751;28;19930;-79
2022/09/14 09:10:05;;;;;;;;;;;;;;;16.51;100.00;98279.78;5094337;28;20006;-80
2022/09/14 09:12:42;;;;;;;;;;;;;;;16.87;100.00;98276.63;5110227;28;19924;-79
2022/09/14 09:15:18;;;;;;;;;;;;;;;16.56;100.00;98282.69;5097816;28;19939;-77
2022/09/14 09:17:47;;;;;;;;;;;;;;;16.89;100.00;98283.34;5107517;28;19967;-77
2022/09/14 09:20:27;;;;;;;;;;;;;;;16.82;100.00;98280.91;5095153;28;19966;-77
2022/09/14 09:23:13;;;;;;;;;;;;;;;16.52;100.00;98289.78;5100805;28;19924;-78
2022/09/14 09:25:47;;;;;;;;;;;;;;;17.56;100.00;98283.28;5107182;28;19930;-75
2022/09/14 09:28:15;;;;;;;;;;;;;;;17.72;100.00;98268.63;5094818;28;19924;-74
2022/09/14 09:30:44;;;;;;;;;;;;;;;17.55;100.00;98283.78;5100434;28;20363;-75
2022/09/14 09:33:19;;;;;;;;;;;;;;;18.05;100.00;98268.38;5067409;28;20293;-76
2022/09/14 09:36:12;;;;;;;;;;;;;;;17.61;100.00;98284.66;5094405;28;20397;-84
2022/09/14 09:38:40;;;;;;;;;;;;;;;17.29;100.00;98288.44;5101415;28;19977;-77
2022/09/14 09:41:23;;;;;;;;;;;;;;;17.16;100.00;98285.13;5100127;28;19927;-76
2022/09/14 09:43:59;;;;;;;;;;;;;;;16.96;100.00;98293.47;5092144;28;19932;-76
2022/09/14 09:46:29;;;;;;;;;;;;;;;17.16;100.00;98282.31;5088505;28;19924;-76
2022/09/14 09:48:57;;;;;;;;;;;;;;;17.22;100.00;98286.75;5088430;28;19965;-77
2022/09/14 09:51:25;;;;;;;;;;;;;;;17.53;100.00;98284.25;5089322;28;20382;-77
2022/09/14 09:53:54;;;;;;;;;;;;;;;17.32;100.00;98278.97;5106118;28;20491;-74
2022/09/14 09:56:31;;;;;;;;;;;;;;;17.50;100.00;98267.50;5095018;28;19927;-73
2022/09/14 09:58:58;;;;;;;;;;;;;;;17.83;100.00;98274.47;5097888;28;19931;-73
2022/09/14 10:01:30;;;;;;;;;;;;;;;17.11;100.00;98288.63;5104623;28;19923;-74
2022/09/14 10:04:16;;;;;;;;;;;;;;;16.91;100.00;98286.47;5093396;28;19924;-72
2022/09/14 10:06:44;;;;;;;;;;;;;;;16.91;100.00;98294.16;5082940;28;19924;-74
2022/09/14 10:09:15;;;;;;;;;;;;;;;17.05;100.00;98305.47;5101102;28;19928;-73
2022/09/14 10:11:44;;;;;;;;;;;;;;;16.78;100.00;98285.19;5091797;28;19924;-72
2022/09/14 10:14:20;;;;;;;;;;;;;;;16.40;100.00;98290.78;5104663;28;20357;-75
2022/09/14 10:16:47;;;;;;;;;;;;;;;16.42;100.00;98296.72;5098500;28;19930;-76
2022/09/14 10:19:17;;;;;;;;;;;;;;;17.12;100.00;98298.63;5097526;28;19924;-76
2022/09/14 10:22:01;;;;;;;;;;;;;;;17.61;100.00;98284.66;5104732;28;20020;-76
2022/09/14 10:24:28;;;;;;;;;;;;;;;17.86;100.00;98289.66;5076662;28;19923;-76
2022/09/14 10:26:55;;;;;;;;;;;;;;;17.34;100.00;98287.75;5097233;28;19960;-76
2022/09/14 10:29:36;;;;;;;;;;;;;;;17.93;100.00;98286.44;5104032;28;19924;-75
2022/09/14 10:32:24;;;;;;;;;;;;;;;17.74;100.00;98274.59;5091272;28;19924;-75
2022/09/14 10:34:51;;;;;;;;;;;;;;;17.32;100.00;98284.63;5098343;28;20442;-78
2022/09/14 10:37:37;;;;;;;;;;;;;;;16.66;100.00;98289.03;5089419;28;19924;-75
2022/09/14 10:40:15;;;;;;;;;;;;;;;16.71;100.00;98291.19;5105905;28;19924;-75
2022/09/14 10:42:48;;;;;;;;;;;;;;;17.19;100.00;98293.38;5092498;28;19931;-76
2022/09/14 10:45:16;;;;;;;;;;;;;;;17.09;100.00;98294.75;5096211;28;19948;-76
2022/09/14 10:47:48;;;;;;;;;;;;;;;16.78;100.00;98291.59;5089357;28;20023;-76
2022/09/14 10:50:22;;;;;;;;;;;;;;;17.28;100.00;98284.06;5104518;28;19928;-75
2022/09/14 10:52:49;;;;;;;;;;;;;;;17.35;100.00;98278.00;5097097;28;20407;-74
2022/09/14 10:55:30;;;;;;;;;;;;;;;16.53;100.00;98299.78;5087830;28;19931;-76
2022/09/14 10:58:16;;;;;;;;;;;;;;;16.33;100.00;98300.38;5087448;28;20012;-75
2022/09/14 11:01:11;;;;;;;;;;;;;;;16.77;100.00;98306.97;5089332;28;19924;-76
2022/09/14 11:03:56;;;;;;;;;;;;;;;17.07;100.00;98302.91;5084263;28;19924;-77
2022/09/14 11:06:32;;;;;;;;;;;;;;;16.88;100.00;98306.41;5094451;28;19931;-77
2022/09/14 11:09:00;;;;;;;;;;;;;;;16.60;100.00;98302.25;5098329;28;19982;-76
2022/09/14 11:11:36;;;;;;;;;;;;;;;16.13;100.00;98303.78;5104035;28;19970;-77
2022/09/14 11:14:18;;;;;;;;;;;;;;;16.57;100.00;98300.41;5105573;28;19939;-75
2022/09/14 11:16:58;;;;;;;;;;;;;;;16.69;100.00;98293.72;5078028;28;19924;-75
2022/09/14 11:19:27;;;;;;;;;;;;;;;16.60;100.00;98296.63;5102020;28;19946;-76
2022/09/14 11:21:59;;;;;;;;;;;;;;;16.58;100.00;98293.50;5075976;28;20334;-76
2022/09/14 11:24:47;;;;;;;;;;;;;;;16.57;100.00;98286.31;5105324;28;19931;-75
2022/09/14 11:27:24;;;;;;;;;;;;;;;16.66;100.00;98295.44;5105818;28;20370;-75
2022/09/14 11:29:57;;;;;;;;;;;;;;;16.81;100.00;98293.44;5093029;28;20022;-75
2022/09/14 11:32:33;;;;;;;;;;;;;;;16.90;100.00;98286.94;5105725;28;19981;-75
2022/09/14 11:35:21;;;;;;;;;;;;;;;17.06;100.00;98300.59;5077221;28;19924;-75
2022/09/14 11:38:20;;;;;;;;;;;;;;;17.20;100.00;98294.97;5078039;28;19924;-75
2022/09/14 11:40:55;;;;;;;;;;;;;;;17.43;100.00;98296.13;5045621;28;20362;-75
2022/09/14 11:43:41;;;;;;;;;;;;;;;17.65;100.00;98290.88;5094204;28;19924;-75
2022/09/14 11:46:24;;;;;;;;;;;;;;;17.56;100.00;98294.59;5095175;28;19963;-75
2022/09/14 11:48:55;;;;;;;;;;;;;;;17.50;100.00;98281.63;5096795;28;19924;-75
2022/09/14 11:51:27;;;;;;;;;;;;;;;17.51;100.00;98295.25;5073631;28;19928;-75
2022/09/14 11:53:55;;;;;;;;;;;;;;;17.36;100.00;98302.16;5107817;28;20278;-77
2022/09/14 11:56:26;;;;;;;;;;;;;;;17.28;100.00;98301.75;5095137;28;19931;-77
2022/09/14 11:58:58;;;;;;;;;;;;;;;17.19;100.00;98306.75;5104769;28;20043;-76
2022/09/14 12:01:35;;;;;;;;;;;;;;;17.06;100.00;98307.00;5091071;28;19935;-76
2022/09/14 12:04:15;;;;;;;;;;;;;;;16.00;100.00;98297.63;5107972;28;19959;-76
2022/09/14 12:06:48;;;;;;;;;;;;;;;16.61;100.00;98310.25;5091049;28;19932;-76
2022/09/14 12:09:16;;;;;;;;;;;;;;;16.86;100.00;98308.91;5100332;28;19924;-77
2022/09/14 12:11:43;;;;;;;;;;;;;;;16.84;100.00;98305.81;5098330;27;19930;-76
2022/09/14 12:14:22;;;;;;;;;;;;;;;16.56;100.00;98302.44;5089851;28;19982;-76
2022/09/14 12:17:08;;;;;;;;;;;;;;;16.42;100.00;98305.19;5097466;28;19969;-76
2022/09/14 12:19:51;;;;;;;;;;;;;;;16.10;100.00;98301.94;5097292;28;20015;-77
2022/09/14 12:22:25;;;;;;;;;;;;;;;16.09;100.00;98291.94;5107542;28;19924;-76
2022/09/14 12:24:58;;;;;;;;;;;;;;;16.44;100.00;98294.22;5097293;28;19924;-76
2022/09/14 12:27:28;;;;;;;;;;;;;;;16.75;100.00;98292.56;5089421;28;19981;-76
2022/09/14 12:29:55;;;;;;;;;;;;;;;16.78;100.00;98285.19;5089528;28;20019;-76
2022/09/14 12:32:39;;;;;;;;;;;;;;;17.13;100.00;98288.94;5108177;28;19930;-76
2022/09/14 12:35:25;;;;;;;;;;;;;;;17.32;100.00;98285.41;5099660;28;19924;-77
2022/09/14 12:37:52;;;;;;;;;;;;;;;17.58;100.00;98292.03;5095877;28;19962;-77
2022/09/14 12:40:19;;;;;;;;;;;;;;;18.00;100.00;98271.88;5107947;28;19924;-77
2022/09/14 12:42:47;;;;;;;;;;;;;;;18.13;100.00;98272.31;5097446;28;19924;-77
2022/09/14 12:45:32;;;;;;;;;;;;;;;17.77;100.00;98272.81;5101059;28;19931;-77
2022/09/14 12:47:59;;;;;;;;;;;;;;;17.89;100.00;98268.88;5107105;28;20002;-77
2022/09/14 12:50:30;;;;;;;;;;;;;;;17.80;100.00;98269.00;5093926;28;19927;-77
2022/09/14 12:53:20;;;;;;;;;;;;;;;17.42;100.00;98271.97;5103489;28;20005;-77
2022/09/14 12:55:55;;;;;;;;;;;;;;;17.54;100.00;98270.91;5105046;28;19928;-77
2022/09/14 12:58:29;;;;;;;;;;;;;;;17.58;100.00;98263.78;5093988;28;19928;-76
2022/09/14 13:01:11;;;;;;;;;;;;;;;17.60;100.00;98271.78;5101996;28;19924;-81